createdAt,value
2023-01-12T00:04:44.286Z,39.1
2023-01-12T00:09:19.613Z,39.1
2023-01-12T00:14:26.079Z,39
2023-01-12T00:19:33.404Z,38.9
2023-01-12T00:24:55.904Z,38.9
2023-01-12T00:29:47.634Z,38.9
2023-01-12T00:35:10.064Z,38.8
2023-01-12T00:40:38.210Z,38.8
2023-01-12T00:46:00.399Z,38.7
2023-01-12T00:51:25.262Z,38.6
2023-01-12T00:56:45.505Z,38.6
2023-01-12T01:02:08.619Z,38.6
2023-01-12T01:07:15.246Z,38.5
2023-01-12T01:12:07.389Z,38.4
2023-01-12T01:16:59.403Z,38.4
2023-01-12T01:22:06.053Z,38.4
2023-01-12T01:26:58.095Z,38.3
2023-01-12T01:32:04.472Z,38.3
2023-01-12T01:37:10.480Z,38.2
2023-01-12T01:42:33.216Z,38.2
2023-01-12T01:47:55.837Z,38.1
2023-01-12T01:53:02.259Z,38.1
2023-01-12T01:58:25.021Z,38
2023-01-12T02:03:33.973Z,38.5
2023-01-12T02:08:42.903Z,39.4
2023-01-12T02:13:50.534Z,39.9
2023-01-12T02:19:12.166Z,40.6
2023-01-12T02:24:34.633Z,41.3
2023-01-12T02:29:41.794Z,41.9
2023-01-12T02:35:04.092Z,42.5
2023-01-12T02:40:28.595Z,43.1
2023-01-12T02:45:51.364Z,43.9
2023-01-12T02:51:12.536Z,44.4
2023-01-12T02:56:34.742Z,44.8
2023-01-12T03:01:57.979Z,44.9
2023-01-12T03:07:20.133Z,45.3
2023-01-12T03:12:26.932Z,45.6
2023-01-12T03:17:50.010Z,45.6
2023-01-12T03:23:11.797Z,45.8
2023-01-12T03:28:18.485Z,45.9
2023-01-12T03:33:41.283Z,45.9
2023-01-12T03:39:03.976Z,45.9
2023-01-12T03:44:26.807Z,46
2023-01-12T03:49:49.486Z,45.9
2023-01-12T03:55:11.423Z,45.9
2023-01-12T04:00:32.651Z,45.8
2023-01-12T04:05:56.651Z,45.8
2023-01-12T04:11:02.986Z,45.8
2023-01-12T04:16:10.965Z,45.8
2023-01-12T04:21:33.598Z,45.7
2023-01-12T04:26:39.978Z,45.6
2023-01-12T04:31:46.551Z,45.6
2023-01-12T04:37:09.422Z,45.5
2023-01-12T04:42:31.156Z,45.4
2023-01-12T04:47:55.922Z,45.4
2023-01-12T04:53:18.811Z,45.3
2023-01-12T04:58:41.676Z,45.3
2023-01-12T05:04:06.244Z,45.2
2023-01-12T05:09:29.438Z,45.1
2023-01-12T05:14:51.182Z,45.1
2023-01-12T05:20:17.239Z,45
2023-01-12T05:25:24.569Z,44.9
2023-01-12T05:30:48.435Z,44.6
2023-01-12T05:35:55.231Z,44.3
2023-01-12T05:41:02.360Z,44.1
2023-01-12T05:46:24.638Z,43.9
2023-01-12T05:51:46.051Z,43.6
2023-01-12T05:57:09.402Z,43.4
2023-01-12T06:02:16.192Z,43.2
2023-01-12T06:07:24.220Z,42.8
2023-01-12T06:12:33.218Z,42.3
2023-01-12T06:17:40.231Z,41.8
2023-01-12T06:23:03.321Z,41.3
2023-01-12T06:28:26.076Z,41
2023-01-12T06:33:48.032Z,40.8
2023-01-12T06:39:18.496Z,40.5
2023-01-12T06:44:41.520Z,40.3
2023-01-12T06:50:04.083Z,40.1
2023-01-12T06:55:25.887Z,39.9
2023-01-12T07:00:49.235Z,39.9
2023-01-12T07:06:11.650Z,39.9
2023-01-12T07:11:34.799Z,39.7
2023-01-12T07:17:00.674Z,35.3
2023-01-12T07:22:23.094Z,32.9
2023-01-12T07:27:48.054Z,31.2
2023-01-12T07:33:11.188Z,30.2
2023-01-12T07:38:35.128Z,29.5
2023-01-12T07:43:58.157Z,29.1
2023-01-12T07:49:21.444Z,28.9
2023-01-12T07:54:45.183Z,28.6
2023-01-12T08:00:07.836Z,28.5
2023-01-12T08:05:34.437Z,28.3
2023-01-12T08:10:56.789Z,28.3
2023-01-12T08:16:19.057Z,28.1
2023-01-12T08:21:42.191Z,28.1
2023-01-12T08:27:06.129Z,28.1
2023-01-12T08:32:28.807Z,28
2023-01-12T08:38:09.669Z,27.9
2023-01-12T08:43:34.468Z,27.9
2023-01-12T08:48:57.183Z,27.9
2023-01-12T08:54:24.047Z,27.9
2023-01-12T09:10:02.143Z,27.8
2023-01-12T09:15:25.189Z,27.8
2023-01-12T09:21:02.613Z,27.8
2023-01-12T09:26:27.914Z,27.8
2023-01-12T09:31:51.945Z,27.8
2023-01-12T09:37:23.162Z,27.8
2023-01-12T09:42:53.184Z,27.7
2023-01-12T09:48:00.503Z,27.7
2023-01-12T09:53:32.827Z,27.7
2023-01-12T09:59:07.689Z,27.7
2023-01-12T10:04:38.123Z,27.7
2023-01-12T10:10:11.766Z,27.7
2023-01-12T10:15:34.576Z,27.7
2023-01-12T10:21:00.340Z,27.7
2023-01-12T10:26:23.965Z,27.6
2023-01-12T10:31:47.434Z,27.6
2023-01-12T10:37:13.822Z,27.6
2023-01-12T10:42:36.256Z,27.6
2023-01-12T10:48:09.476Z,27.6
2023-01-12T10:53:32.290Z,27.6
2023-01-12T10:58:57.781Z,27.6
2023-01-12T11:04:22.627Z,27.6
2023-01-12T11:09:45.002Z,27.6
2023-01-12T11:15:13.855Z,27.4
2023-01-12T11:20:40.171Z,27.1
2023-01-12T11:26:02.538Z,26.3
2023-01-12T11:31:09.876Z,25.8
2023-01-12T11:36:18.142Z,25.4
2023-01-12T11:41:25.657Z,24.9
2023-01-12T11:46:47.993Z,24.5
2023-01-12T11:52:14.322Z,24.3
2023-01-12T11:57:38.883Z,23.6
2023-01-12T12:03:05.573Z,23.3
2023-01-12T12:08:28.808Z,23.1
2023-01-12T12:13:54.877Z,22.9
2023-01-12T12:19:04.442Z,22.8
2023-01-12T12:24:28.652Z,22.8
2023-01-12T12:29:51.191Z,22.7
2023-01-12T12:34:58.350Z,22.7
2023-01-12T12:40:21.704Z,22.6
2023-01-12T12:45:44.590Z,22.6
2023-01-12T12:51:06.961Z,22.6
2023-01-12T12:56:33.122Z,22.6
2023-01-12T13:01:41.320Z,22.6
2023-01-12T13:06:33.266Z,22.6
2023-01-12T13:11:41.097Z,22.6
2023-01-12T13:16:51.169Z,22.7
2023-01-12T13:22:22.186Z,22.6
2023-01-12T13:27:45.581Z,22.6
2023-01-12T13:32:54.891Z,22.7
2023-01-12T13:38:04.815Z,22.7
2023-01-12T13:43:16.059Z,22.7
2023-01-12T13:48:39.286Z,22.7
2023-01-12T13:54:01.885Z,22.8
2023-01-12T13:59:26.310Z,22.8
2023-01-12T14:04:52.756Z,22.8
2023-01-12T14:10:29.194Z,22.8
2023-01-12T14:15:52.661Z,22.8
2023-01-12T14:21:37.665Z,22.8
2023-01-12T14:27:00.314Z,22.8
2023-01-12T14:32:23.970Z,22.8
2023-01-12T14:37:46.268Z,22.9
2023-01-12T14:43:09.043Z,22.9
2023-01-12T14:48:32.411Z,22.9
2023-01-12T14:53:54.768Z,22.9
2023-01-12T14:59:17.826Z,22.9
2023-01-12T15:04:50.118Z,22.9
2023-01-12T15:10:12.523Z,22.9
2023-01-12T15:15:34.960Z,22.9
2023-01-12T15:20:58.062Z,22.9
2023-01-12T15:26:20.809Z,22.9
2023-01-12T15:31:55.689Z,22.9
2023-01-12T15:37:31.835Z,22.9
2023-01-12T15:42:54.012Z,22.9
2023-01-12T15:48:16.440Z,22.8
2023-01-12T15:53:39.514Z,22.8
2023-01-12T15:58:45.823Z,22.8
2023-01-12T16:05:14.229Z,22.3
2023-01-12T16:10:39.064Z,21.5
2023-01-12T16:21:09.324Z,20.9
2023-01-12T16:26:33.067Z,20.7
2023-01-12T16:31:57.628Z,20.6
2023-01-12T16:37:20.296Z,20.5
2023-01-12T16:42:43.672Z,20.4
2023-01-12T16:47:37.502Z,20.3
2023-01-12T16:53:00.829Z,20.3
2023-01-12T16:58:25.582Z,20.2
2023-01-12T17:03:54.366Z,20.1
2023-01-12T17:08:47.345Z,20.1
2023-01-12T17:14:23.267Z,20.1
2023-01-12T17:19:34.737Z,20.1
2023-01-12T17:25:00.467Z,20
2023-01-12T17:30:10.966Z,19.9
2023-01-12T17:35:05.248Z,19.9
2023-01-12T17:40:28.448Z,19.9
2023-01-12T17:45:52.561Z,19.9
2023-01-12T17:51:19.253Z,19.9
2023-01-12T17:56:37.206Z,19.9
2023-01-12T18:01:46.438Z,19.9
2023-01-12T18:07:32.553Z,19.8
2023-01-12T18:12:55.756Z,19.9
2023-01-12T18:18:21.075Z,19.8
2023-01-12T18:23:29.258Z,19.8
2023-01-12T18:28:54.009Z,19.8
2023-01-12T18:34:17.828Z,19.8
2023-01-12T18:39:44.844Z,19.8
2023-01-12T18:45:09.766Z,19.8
2023-01-12T18:50:19.875Z,19.8
2023-01-12T18:55:48.104Z,19.8
2023-01-12T19:01:15.765Z,19.7
2023-01-12T19:06:44.866Z,19.7
2023-01-12T19:12:14.620Z,19.7
2023-01-12T19:17:45.251Z,19.7
2023-01-12T19:23:00.077Z,19.8
2023-01-12T19:27:58.672Z,19.8
2023-01-12T19:33:32.215Z,19.7
2023-01-12T19:39:15.182Z,19.7
2023-01-12T19:44:46.146Z,19.7
2023-01-12T19:50:17.571Z,19.7
2023-01-12T19:55:49.822Z,19.8
2023-01-12T20:01:04.062Z,19.8
2023-01-12T20:06:32.046Z,19.7
2023-01-12T20:11:44.578Z,19.7
2023-01-12T20:17:15.869Z,20.8
2023-01-12T20:22:46.227Z,23.1
2023-01-12T20:27:44.807Z,25.8
2023-01-12T20:33:31.264Z,25.8
2023-01-12T20:38:57.541Z,30.9
2023-01-12T20:44:24.441Z,33.1
2023-01-12T20:49:51.908Z,35.1
2023-01-12T20:55:16.245Z,36.8
2023-01-12T21:00:40.821Z,38.1
2023-01-12T21:05:39.545Z,39.1
2023-01-12T21:11:15.541Z,39.7
2023-01-12T21:16:25.853Z,39.9
2023-01-12T21:21:48.854Z,40.1
2023-01-12T21:27:12.606Z,40.1
2023-01-12T21:32:36.191Z,40.2
2023-01-12T21:37:59.856Z,40.3
2023-01-12T21:43:06.928Z,40.3
2023-01-12T21:48:14.944Z,40.3
2023-01-12T21:53:39.831Z,40.3
2023-01-12T21:58:32.034Z,40.3
2023-01-12T22:03:55.767Z,40.2
2023-01-12T22:09:03.324Z,40.2
2023-01-12T22:14:25.866Z,40.2
2023-01-12T22:19:33.330Z,40.1
2023-01-12T22:24:55.912Z,40.1
2023-01-12T22:30:18.063Z,40.1
2023-01-12T22:35:41.240Z,40
2023-01-12T22:40:51.440Z,39.9
2023-01-12T22:45:58.173Z,39.9
2023-01-12T22:51:29.370Z,39.9
2023-01-12T22:56:52.460Z,39.8
2023-01-12T23:01:58.846Z,39.8
2023-01-12T23:07:06.899Z,39.7
2023-01-12T23:12:13.648Z,39.6
2023-01-12T23:17:35.995Z,39.6
2023-01-12T23:22:58.337Z,39.5
2023-01-12T23:28:04.972Z,39.5
2023-01-12T23:33:26.590Z,39.4
2023-01-12T23:38:33.674Z,39.4
2023-01-12T23:43:55.774Z,39.3
2023-01-12T23:49:17.232Z,39.3
2023-01-12T23:54:39.703Z,39.2
